createdAt,value
2024-03-16T00:02:54.354Z,7.15
2024-03-16T00:05:57.571Z,6.13
2024-03-16T00:12:00.829Z,6.40
2024-03-16T00:15:02.460Z,4.53
2024-03-16T00:18:04.470Z,4.85
2024-03-16T00:21:06.311Z,6.93
2024-03-16T00:24:09.506Z,3.67
2024-03-16T00:27:11.147Z,4.93
2024-03-16T00:30:12.798Z,6.13
2024-03-16T00:33:14.544Z,4.60
2024-03-16T00:36:18.580Z,4.97
2024-03-16T00:39:24.988Z,6.38
2024-03-16T00:42:27.420Z,5.13
2024-03-16T00:45:29.139Z,6.05
2024-03-16T00:48:30.898Z,5.15
2024-03-16T00:51:34.241Z,4.30
2024-03-16T00:54:36.484Z,5.88
2024-03-16T00:57:39.113Z,4.53
2024-03-16T01:00:41.367Z,5.20
2024-03-16T01:03:43.127Z,6.68
2024-03-16T01:06:45.227Z,4.72
2024-03-16T01:09:46.960Z,7.97
2024-03-16T01:12:48.703Z,3.65
2024-03-16T01:15:51.280Z,4.15
2024-03-16T01:18:53.102Z,4.40
2024-03-16T01:21:54.917Z,4.00
2024-03-16T01:24:56.761Z,3.42
2024-03-16T01:27:58.499Z,3.90
2024-03-16T01:31:00.685Z,3.88
2024-03-16T01:34:02.465Z,5.90
2024-03-16T01:37:04.313Z,5.47
2024-03-16T01:40:08.050Z,3.67
2024-03-16T01:43:14.168Z,6.38
2024-03-16T01:46:17.052Z,4.18
2024-03-16T01:49:18.953Z,5.05
2024-03-16T01:52:21.760Z,6.30
2024-03-16T01:55:24.242Z,4.55
2024-03-16T01:58:28.518Z,5.97
2024-03-16T02:01:31.061Z,3.92
2024-03-16T02:04:32.762Z,4.80
2024-03-16T02:07:38.478Z,5.30
2024-03-16T02:10:40.314Z,7.30
2024-03-16T02:13:42.120Z,5.85
2024-03-16T02:16:45.388Z,9.38
2024-03-16T02:22:51.035Z,7.25
2024-03-16T02:25:52.731Z,7.13
2024-03-16T02:28:54.317Z,4.38
2024-03-16T02:31:56.297Z,8.07
2024-03-16T02:34:57.950Z,5.53
2024-03-16T02:37:59.944Z,6.22
2024-03-16T02:41:01.774Z,6.63
2024-03-16T02:44:03.890Z,6.72
2024-03-16T02:47:05.706Z,8.57
2024-03-16T02:50:11.284Z,8.27
2024-03-16T02:53:14.700Z,8.77
2024-03-16T02:59:17.936Z,8.02
2024-03-16T03:02:24.068Z,6.90
2024-03-16T03:05:25.722Z,9.93
2024-03-16T03:08:27.424Z,9.00
2024-03-16T03:11:29.294Z,9.60
2024-03-16T03:14:31.048Z,10.27
2024-03-16T03:17:33.049Z,10.68
2024-03-16T03:20:35.066Z,10.20
2024-03-16T03:23:37.362Z,11.38
2024-03-16T03:26:39.378Z,11.57
2024-03-16T03:29:41.381Z,12.55
2024-03-16T03:32:43.046Z,10.50
2024-03-16T03:35:44.647Z,11.07
2024-03-16T03:38:46.313Z,12.30
2024-03-16T03:41:47.943Z,10.88
2024-03-16T03:45:01.485Z,13.38
2024-03-16T03:51:24.747Z,8.57
2024-03-16T03:54:26.475Z,8.48
2024-03-16T03:57:28.368Z,6.40
2024-03-16T04:00:30.101Z,8.32
2024-03-16T04:03:31.819Z,8.43
2024-03-16T04:06:33.773Z,10.70
2024-03-16T04:09:35.435Z,7.97
2024-03-16T04:12:37.125Z,6.80
2024-03-16T04:15:38.797Z,7.18
2024-03-16T04:18:40.596Z,7.40
2024-03-16T04:21:44.331Z,9.35
2024-03-16T04:24:46.468Z,8.00
2024-03-16T04:27:48.205Z,5.40
2024-03-16T04:30:49.885Z,6.68
2024-03-16T04:33:52.552Z,6.70
2024-03-16T04:36:54.439Z,6.30
2024-03-16T04:39:56.946Z,6.82
2024-03-16T04:42:58.643Z,7.43
2024-03-16T04:46:00.403Z,7.30
2024-03-16T04:49:02.320Z,5.78
2024-03-16T04:52:04.209Z,7.00
2024-03-16T04:55:06.224Z,5.90
2024-03-16T04:58:09.442Z,4.03
2024-03-16T05:04:14.161Z,2.45
2024-03-16T05:07:16.330Z,3.78
2024-03-16T05:10:18.718Z,4.60
2024-03-16T05:13:20.814Z,6.90
2024-03-16T05:16:23.214Z,3.00
2024-03-16T05:19:27.292Z,2.97
2024-03-16T05:22:31.245Z,5.72
2024-03-16T05:25:33.011Z,5.75
2024-03-16T05:28:34.643Z,5.28
2024-03-16T05:31:37.548Z,7.32
2024-03-16T05:34:41.084Z,7.35
2024-03-16T05:37:42.733Z,9.95
2024-03-16T05:40:47.129Z,5.53
2024-03-16T05:43:48.951Z,8.45
2024-03-16T05:46:50.980Z,7.85
2024-03-16T05:49:52.615Z,5.22
2024-03-16T05:52:54.274Z,6.90
2024-03-16T05:55:55.955Z,6.93
2024-03-16T05:58:58.619Z,7.72
2024-03-16T06:02:00.287Z,7.18
2024-03-16T06:05:04.836Z,3.88
2024-03-16T06:08:06.867Z,6.70
2024-03-16T06:11:09.373Z,6.38
2024-03-16T06:14:11.109Z,3.27
2024-03-16T06:17:12.728Z,3.63
2024-03-16T06:20:16.504Z,5.18
2024-03-16T06:23:18.273Z,8.50
2024-03-16T06:26:20.484Z,3.00
2024-03-16T06:29:27.148Z,4.40
2024-03-16T06:32:29.718Z,4.47
2024-03-16T06:35:32.122Z,4.05
2024-03-16T06:38:33.823Z,5.90
2024-03-16T06:41:36.010Z,3.95
2024-03-16T06:44:38.174Z,5.07
2024-03-16T06:47:39.793Z,2.90
2024-03-16T06:50:41.439Z,4.15
2024-03-16T06:53:43.119Z,5.07
2024-03-16T06:56:44.765Z,3.90
2024-03-16T06:59:46.434Z,4.55
2024-03-16T07:02:48.089Z,2.75
2024-03-16T07:05:49.748Z,3.80
2024-03-16T07:08:51.414Z,1.77
2024-03-16T07:11:54.829Z,3.15
2024-03-16T07:14:56.586Z,1.70
2024-03-16T07:17:58.284Z,3.35
2024-03-16T07:21:00.572Z,2.88
2024-03-16T07:24:02.911Z,2.83
2024-03-16T07:27:06.417Z,2.07
2024-03-16T07:30:08.448Z,2.67
2024-03-16T07:33:12.152Z,3.40
2024-03-16T07:36:14.019Z,2.00
2024-03-16T07:39:16.387Z,4.05
2024-03-16T07:42:20.340Z,2.57
2024-03-16T07:45:22.894Z,2.60
2024-03-16T07:48:27.005Z,3.05
2024-03-16T07:51:32.112Z,1.70
2024-03-16T07:54:35.017Z,4.70
2024-03-16T07:57:36.733Z,2.47
2024-03-16T08:00:38.413Z,2.28
2024-03-16T08:03:40.108Z,0.60
2024-03-16T08:06:41.937Z,1.00
2024-03-16T08:09:44.842Z,1.00
2024-03-16T08:12:46.723Z,1.02
2024-03-16T08:15:48.363Z,1.17
2024-03-16T08:18:50.214Z,1.65
2024-03-16T08:21:52.147Z,1.20
2024-03-16T08:24:53.847Z,1.13
2024-03-16T08:27:55.554Z,1.88
2024-03-16T08:30:57.253Z,0.47
2024-03-16T08:33:59.815Z,2.20
2024-03-16T08:37:01.646Z,0.77
2024-03-16T08:40:12.970Z,0.65
2024-03-16T08:43:14.989Z,0.45
2024-03-16T08:46:16.733Z,0.98
2024-03-16T08:49:19.067Z,0.40
2024-03-16T08:52:21.232Z,0.30
2024-03-16T08:55:24.588Z,1.55
2024-03-16T09:01:28.145Z,0.43
2024-03-16T09:04:29.891Z,0.65
2024-03-16T09:07:31.721Z,0.90
2024-03-16T09:10:33.387Z,1.35
2024-03-16T09:13:35.324Z,1.50
2024-03-16T09:16:41.544Z,1.20
2024-03-16T09:19:43.335Z,1.50
2024-03-16T09:22:45.038Z,1.33
2024-03-16T09:25:48.155Z,1.48
2024-03-16T09:31:51.693Z,2.38
2024-03-16T09:34:53.651Z,2.70
2024-03-16T09:37:55.342Z,2.17
2024-03-16T09:40:57.362Z,5.03
